createdAt,value
2019-05-11T00:01:01.301Z,33.83
2019-05-11T00:03:40.018Z,33.33
2019-05-11T00:06:17.663Z,36.03
2019-05-11T00:08:55.656Z,34.90
2019-05-11T00:11:32.799Z,45.10
2019-05-11T00:14:10.698Z,37.70
2019-05-11T00:16:47.906Z,38.40
2019-05-11T00:19:26.693Z,38.38
2019-05-11T00:22:05.201Z,34.13
2019-05-11T00:24:42.176Z,35.65
2019-05-11T00:27:19.870Z,33.78
2019-05-11T00:29:58.045Z,36.00
2019-05-11T00:32:35.474Z,42.65
2019-05-11T00:35:13.899Z,33.48
2019-05-11T00:37:51.475Z,42.55
2019-05-11T00:40:30.376Z,32.05
2019-05-11T00:43:07.894Z,36.05
2019-05-11T00:45:45.642Z,36.65
2019-05-11T00:48:22.957Z,34.58
2019-05-11T00:51:00.809Z,38.00
2019-05-11T00:53:39.525Z,38.17
2019-05-11T00:56:16.941Z,37.40
2019-05-11T00:58:54.059Z,37.53
2019-05-11T01:01:33.022Z,39.33
2019-05-11T01:04:10.662Z,37.90
2019-05-11T01:06:47.871Z,34.03
2019-05-11T01:09:25.211Z,39.30
2019-05-11T01:12:03.683Z,35.98
2019-05-11T01:14:40.827Z,55.85
2019-05-11T01:17:18.516Z,82.00
2019-05-11T01:19:55.973Z,49.53
2019-05-11T01:22:35.243Z,41.88
2019-05-11T01:25:13.514Z,39.03
2019-05-11T01:27:51.040Z,41.80
2019-05-11T01:30:28.263Z,47.65
2019-05-11T01:33:06.598Z,40.98
2019-05-11T01:35:44.879Z,47.50
2019-05-11T01:38:22.461Z,34.23
2019-05-11T01:41:00.194Z,37.73
2019-05-11T01:43:39.020Z,35.28
2019-05-11T01:46:18.177Z,42.73
2019-05-11T01:48:55.524Z,40.98
2019-05-11T01:51:32.406Z,38.33
2019-05-11T01:54:10.535Z,32.35
2019-05-11T01:56:48.864Z,34.78
2019-05-11T01:59:26.948Z,36.73
2019-05-11T02:02:04.440Z,35.78
2019-05-11T02:04:43.247Z,35.03
2019-05-11T02:07:23.852Z,37.28
2019-05-11T02:10:02.869Z,41.67
2019-05-11T02:12:40.051Z,42.03
2019-05-11T02:15:18.263Z,32.70
2019-05-11T02:17:55.342Z,31.85
2019-05-11T02:20:32.602Z,44.42
2019-05-11T02:23:10.040Z,42.60
2019-05-11T02:25:48.085Z,41.85
2019-05-11T02:28:26.893Z,48.08
2019-05-11T02:31:04.879Z,43.38
2019-05-11T02:33:42.237Z,40.05
2019-05-11T02:36:20.380Z,39.83
2019-05-11T02:38:58.325Z,42.67
2019-05-11T02:41:37.674Z,41.88
2019-05-11T02:44:16.357Z,44.33
2019-05-11T02:46:54.079Z,40.20
2019-05-11T02:49:31.086Z,38.05
2019-05-11T02:52:08.864Z,34.08
2019-05-11T02:54:46.418Z,40.33
2019-05-11T02:57:24.841Z,43.65
2019-05-11T03:00:03.289Z,41.28
2019-05-11T03:02:43.165Z,36.85
2019-05-11T03:05:20.589Z,44.60
2019-05-11T03:07:59.855Z,36.98
2019-05-11T03:10:36.656Z,39.42
2019-05-11T03:13:14.010Z,33.38
2019-05-11T03:15:52.484Z,44.38
2019-05-11T03:18:31.023Z,54.35
2019-05-11T03:21:08.728Z,48.68
2019-05-11T03:23:46.972Z,36.10
2019-05-11T03:26:24.569Z,34.65
2019-05-11T03:29:05.247Z,41.23
2019-05-11T03:31:43.678Z,33.18
2019-05-11T03:34:20.897Z,31.97
2019-05-11T03:36:58.310Z,36.60
2019-05-11T03:39:36.935Z,36.68
2019-05-11T03:42:15.472Z,29.67
2019-05-11T03:44:54.107Z,30.12
2019-05-11T03:47:32.001Z,36.70
2019-05-11T03:50:10.023Z,36.65
2019-05-11T03:52:46.881Z,36.65
2019-05-11T03:55:26.953Z,33.65
2019-05-11T03:58:04.380Z,34.88
2019-05-11T04:00:43.118Z,34.08
2019-05-11T04:03:21.774Z,38.28
2019-05-11T04:05:59.189Z,39.80
2019-05-11T04:08:36.875Z,39.00
2019-05-11T04:11:14.837Z,37.17
2019-05-11T04:13:51.859Z,36.42
2019-05-11T04:16:29.503Z,43.52
2019-05-11T04:19:06.918Z,36.17
2019-05-11T04:21:44.979Z,35.90
2019-05-11T04:24:22.278Z,32.88
2019-05-11T04:27:00.016Z,36.13
2019-05-11T04:29:37.462Z,34.40
2019-05-11T04:32:15.858Z,35.00
2019-05-11T04:34:54.236Z,28.50
2019-05-11T04:37:32.173Z,34.67
2019-05-11T04:40:10.214Z,36.30
2019-05-11T04:42:54.994Z,31.85
2019-05-11T04:45:28.697Z,42.43
2019-05-11T04:48:07.541Z,41.23
2019-05-11T04:50:44.539Z,35.55
2019-05-11T04:53:22.738Z,43.20
2019-05-11T04:55:59.925Z,40.48
2019-05-11T04:58:37.458Z,33.95
2019-05-11T05:01:14.775Z,39.20
2019-05-11T05:03:56.225Z,25.65
2019-05-11T05:09:09.826Z,42.25
2019-05-11T05:11:47.274Z,36.90
2019-05-11T05:14:25.077Z,36.55
2019-05-11T05:17:02.547Z,32.20
2019-05-11T05:19:39.718Z,36.98
2019-05-11T05:22:19.376Z,34.35
2019-05-11T05:24:57.331Z,38.67
2019-05-11T05:27:34.644Z,42.10
2019-05-11T05:30:13.061Z,35.20
2019-05-11T05:32:50.353Z,33.25
2019-05-11T05:35:28.312Z,37.90
2019-05-11T05:38:06.648Z,36.93
2019-05-11T05:40:44.814Z,39.23
2019-05-11T05:43:28.116Z,31.42
2019-05-11T05:46:03.260Z,42.10
2019-05-11T05:48:40.788Z,34.55
2019-05-11T05:51:19.417Z,38.98
2019-05-11T05:53:56.698Z,37.88
2019-05-11T05:56:34.527Z,32.10
2019-05-11T05:59:12.178Z,37.35
2019-05-11T06:01:49.890Z,33.42
2019-05-11T06:04:26.606Z,31.27
2019-05-11T06:07:04.524Z,37.10
2019-05-11T06:09:44.033Z,36.53
2019-05-11T06:12:21.902Z,37.85
2019-05-11T06:14:59.395Z,36.68
2019-05-11T06:17:37.816Z,35.85
2019-05-11T06:20:15.591Z,33.42
2019-05-11T06:22:52.930Z,37.95
2019-05-11T06:25:30.096Z,36.03
2019-05-11T06:28:08.846Z,33.08
2019-05-11T06:30:46.095Z,36.73
2019-05-11T06:33:23.897Z,37.50
2019-05-11T06:36:01.288Z,35.20
2019-05-11T06:38:40.091Z,30.88
2019-05-11T06:41:18.345Z,37.25
2019-05-11T06:44:01.805Z,37.53
2019-05-11T06:46:36.837Z,40.20
2019-05-11T06:49:14.889Z,32.93
2019-05-11T06:51:52.397Z,36.68
2019-05-11T06:54:29.392Z,35.15
2019-05-11T06:57:06.731Z,25.27
2019-05-11T06:59:44.917Z,35.80
2019-05-11T07:02:22.006Z,31.70
2019-05-11T07:04:59.444Z,31.45
2019-05-11T07:07:47.070Z,37.53
2019-05-11T07:10:16.906Z,31.12
2019-05-11T07:12:55.299Z,33.63
2019-05-11T07:15:33.024Z,31.82
2019-05-11T07:18:10.388Z,31.70
2019-05-11T07:20:50.796Z,32.17
2019-05-11T07:23:28.138Z,26.33
2019-05-11T07:26:07.685Z,31.75
2019-05-11T07:28:45.324Z,32.53
2019-05-11T07:31:23.091Z,34.53
2019-05-11T07:34:00.599Z,43.40
2019-05-11T07:36:38.770Z,29.70
2019-05-11T07:39:18.645Z,35.17
2019-05-11T07:41:58.494Z,39.53
2019-05-11T07:44:41.485Z,28.47
2019-05-11T07:47:18.669Z,36.80
2019-05-11T07:49:57.909Z,42.88
2019-05-11T07:52:37.847Z,33.90
2019-05-11T07:55:18.796Z,30.05
2019-05-11T07:57:55.280Z,35.28
2019-05-11T08:00:36.367Z,42.83
2019-05-11T08:03:12.568Z,30.00
2019-05-11T08:05:49.966Z,36.93
2019-05-11T08:08:28.307Z,31.55
2019-05-11T08:11:08.107Z,35.58
2019-05-11T08:13:47.890Z,32.88
2019-05-11T08:16:25.149Z,27.95
2019-05-11T08:19:04.992Z,33.20
2019-05-11T08:21:41.913Z,33.13
2019-05-11T08:24:20.152Z,33.48
2019-05-11T08:26:58.382Z,30.72
2019-05-11T08:29:38.442Z,29.40
2019-05-11T08:32:15.138Z,29.45
2019-05-11T08:34:53.668Z,30.50
2019-05-11T08:37:30.711Z,29.37
2019-05-11T08:40:09.254Z,29.72
2019-05-11T08:42:48.246Z,34.40
2019-05-11T08:45:28.158Z,27.50
2019-05-11T08:48:08.098Z,29.02
2019-05-11T08:50:46.087Z,34.05
2019-05-11T08:53:23.829Z,31.97
2019-05-11T08:56:02.519Z,34.18
2019-05-11T08:58:40.141Z,36.28
2019-05-11T09:01:18.428Z,22.35
2019-05-11T09:03:58.402Z,33.83
2019-05-11T09:06:37.656Z,41.05
2019-05-11T09:09:14.825Z,48.40
2019-05-11T09:11:52.196Z,33.15
2019-05-11T09:14:29.616Z,37.20
2019-05-11T09:17:07.966Z,34.95
2019-05-11T09:19:48.062Z,33.95
2019-05-11T09:22:25.300Z,35.68
2019-05-11T09:25:02.688Z,28.05
2019-05-11T09:27:43.492Z,32.83
2019-05-11T09:30:20.990Z,40.10
2019-05-11T09:32:59.763Z,35.85
2019-05-11T09:35:47.656Z,40.80
2019-05-11T09:38:18.583Z,35.33
2019-05-11T09:40:58.509Z,46.08
2019-05-11T09:43:37.556Z,40.23
2019-05-11T09:46:14.960Z,35.17
2019-05-11T09:48:53.072Z,29.87
2019-05-11T09:51:31.681Z,28.65
2019-05-11T09:54:09.777Z,29.55
2019-05-11T09:56:48.676Z,35.85
2019-05-11T09:59:28.164Z,35.80
2019-05-11T10:02:07.828Z,34.35
2019-05-11T10:04:44.715Z,33.55
2019-05-11T10:07:22.259Z,43.23
2019-05-11T10:09:59.507Z,44.10
2019-05-11T10:12:37.995Z,44.63
2019-05-11T10:15:15.757Z,56.85
2019-05-11T10:17:53.323Z,50.60
2019-05-11T10:20:30.858Z,65.70
2019-05-11T10:23:09.571Z,45.28
2019-05-11T10:25:48.079Z,45.00
2019-05-11T10:28:28.480Z,44.05
2019-05-11T10:31:08.372Z,38.73
2019-05-11T10:33:45.429Z,50.58
2019-05-11T10:36:23.272Z,53.23
2019-05-11T10:39:00.669Z,47.03
2019-05-11T10:41:39.288Z,50.50
2019-05-11T10:44:18.780Z,38.13
2019-05-11T10:46:58.712Z,47.48
2019-05-11T10:49:37.866Z,48.52
2019-05-11T10:52:18.030Z,40.88
2019-05-11T10:54:58.394Z,41.17
2019-05-11T10:57:34.732Z,45.15
2019-05-11T11:00:12.465Z,43.70
2019-05-11T11:02:50.464Z,50.40
2019-05-11T11:05:27.995Z,48.65
2019-05-11T11:08:05.450Z,47.58
2019-05-11T11:10:42.967Z,40.35
2019-05-11T11:13:20.741Z,48.17
2019-05-11T11:16:01.622Z,39.38
2019-05-11T11:18:38.099Z,29.92
2019-05-11T11:21:19.213Z,40.70
2019-05-11T11:23:58.561Z,34.48
2019-05-11T11:26:38.015Z,34.95
2019-05-11T11:29:17.881Z,42.73
2019-05-11T11:31:54.756Z,38.25
2019-05-11T11:34:32.695Z,42.73
2019-05-11T11:37:10.345Z,46.50
2019-05-11T11:39:48.139Z,47.83
2019-05-11T11:42:28.256Z,57.55
2019-05-11T11:45:07.876Z,43.38
2019-05-11T11:47:45.528Z,49.98
2019-05-11T11:50:23.582Z,47.43
2019-05-11T11:53:00.926Z,43.10
2019-05-11T11:55:39.768Z,41.08
2019-05-11T11:58:23.556Z,42.13
2019-05-11T12:00:58.688Z,39.20
2019-05-11T12:03:38.513Z,37.33
2019-05-11T12:06:18.158Z,48.90
2019-05-11T12:08:58.292Z,47.35
2019-05-11T12:11:35.447Z,40.15
2019-05-11T12:14:12.915Z,48.95
2019-05-11T12:17:04.013Z,50.10
2019-05-11T12:19:29.820Z,49.30
2019-05-11T12:22:08.611Z,50.15
2019-05-11T12:24:48.140Z,48.30
2019-05-11T12:27:25.960Z,40.73
2019-05-11T12:30:04.112Z,49.03
2019-05-11T12:32:48.860Z,43.15
2019-05-11T12:35:28.401Z,38.45
2019-05-11T12:38:08.043Z,37.42
2019-05-11T12:40:47.581Z,38.80
2019-05-11T12:43:24.303Z,49.93
2019-05-11T12:46:05.235Z,52.13
2019-05-11T12:48:44.378Z,42.30
2019-05-11T12:51:21.365Z,38.38
2019-05-11T12:53:59.830Z,46.08
2019-05-11T12:56:38.286Z,38.73
2019-05-11T12:59:15.841Z,44.95
2019-05-11T13:01:54.399Z,31.25
2019-05-11T13:04:31.409Z,40.28
2019-05-11T13:07:08.811Z,39.67
2019-05-11T13:09:48.481Z,36.40
2019-05-11T13:12:27.905Z,35.03
2019-05-11T13:15:07.823Z,40.63
2019-05-11T13:17:45.760Z,38.13
2019-05-11T13:20:23.582Z,44.85
2019-05-11T13:23:01.039Z,33.08
2019-05-11T13:25:39.104Z,41.60
2019-05-11T13:28:17.984Z,38.75
2019-05-11T13:30:57.917Z,38.75
2019-05-11T13:33:35.744Z,36.20
2019-05-11T13:36:13.767Z,34.43
2019-05-11T13:38:51.937Z,41.05
2019-05-11T13:41:29.802Z,45.03
2019-05-11T13:44:07.971Z,41.70
2019-05-11T13:46:47.949Z,29.48
2019-05-11T13:49:28.182Z,34.75
2019-05-11T13:52:05.894Z,39.60
2019-05-11T13:54:43.540Z,36.53
2019-05-11T13:57:21.300Z,32.93
2019-05-11T13:59:58.721Z,40.25
2019-05-11T14:02:37.961Z,32.90
2019-05-11T14:05:18.069Z,35.33
2019-05-11T14:07:56.018Z,31.82
2019-05-11T14:10:33.350Z,32.25
2019-05-11T14:13:11.685Z,30.08
2019-05-11T14:15:49.413Z,33.95
2019-05-11T14:18:28.178Z,36.88
2019-05-11T14:21:07.911Z,34.50
2019-05-11T14:23:45.129Z,33.90
2019-05-11T14:26:22.525Z,33.30
2019-05-11T14:29:01.241Z,34.63
2019-05-11T14:31:38.949Z,40.67
2019-05-11T14:34:18.219Z,39.88
2019-05-11T14:36:58.179Z,33.02
2019-05-11T14:39:38.356Z,35.90
2019-05-11T14:42:15.257Z,31.02
2019-05-11T14:44:53.233Z,34.15
2019-05-11T14:47:30.561Z,30.62
2019-05-11T14:50:08.783Z,27.45
2019-05-11T14:52:48.853Z,25.15
2019-05-11T14:55:28.230Z,25.77
2019-05-11T14:58:04.707Z,33.67
2019-05-11T15:00:40.713Z,28.80
2019-05-11T15:03:18.386Z,28.65
2019-05-11T15:05:58.284Z,25.43
2019-05-11T15:08:35.923Z,19.45
2019-05-11T15:11:13.392Z,26.77
2019-05-11T15:13:50.538Z,22.58
2019-05-11T15:16:28.006Z,20.70
2019-05-11T15:19:05.475Z,23.92
2019-05-11T15:21:43.320Z,25.30
2019-05-11T15:24:20.337Z,32.25
2019-05-11T15:26:57.925Z,26.52
2019-05-11T15:29:35.164Z,21.82
2019-05-11T15:32:12.797Z,19.92
2019-05-11T15:34:50.419Z,25.82
2019-05-11T15:37:28.681Z,26.20
2019-05-11T15:40:18.670Z,25.43
2019-05-11T15:42:58.554Z,22.42
2019-05-11T15:45:38.022Z,21.00
2019-05-11T15:48:15.730Z,21.87
2019-05-11T15:50:53.546Z,26.20
2019-05-11T15:53:31.333Z,23.55
2019-05-11T15:56:09.100Z,23.35
2019-05-11T15:58:48.596Z,22.67
2019-05-11T16:01:26.352Z,21.42
2019-05-11T16:04:04.112Z,20.82
2019-05-11T16:06:41.612Z,17.77
2019-05-11T16:09:19.664Z,20.80
2019-05-11T16:11:58.316Z,21.20
2019-05-11T16:14:38.207Z,22.17
2019-05-11T16:17:14.995Z,24.15
2019-05-11T16:19:53.149Z,20.55
2019-05-11T16:22:30.649Z,24.37
2019-05-11T16:25:08.810Z,25.35
2019-05-11T16:27:45.890Z,22.35
2019-05-11T16:30:24.641Z,19.75
2019-05-11T16:33:02.083Z,21.95
2019-05-11T16:35:39.998Z,17.07
2019-05-11T16:38:18.886Z,16.90
2019-05-11T16:40:58.436Z,18.32
2019-05-11T16:43:38.538Z,21.48
2019-05-11T16:46:17.731Z,18.12
2019-05-11T16:48:57.790Z,20.85
2019-05-11T16:51:38.705Z,16.15
2019-05-11T16:54:15.441Z,20.25
2019-05-11T16:56:53.181Z,20.77
2019-05-11T16:59:30.390Z,25.80
2019-05-11T17:02:08.527Z,19.95
2019-05-11T17:04:47.966Z,24.10
2019-05-11T17:07:25.165Z,23.15
2019-05-11T17:10:02.602Z,18.17
2019-05-11T17:12:40.461Z,15.80
2019-05-11T17:15:19.267Z,25.50
2019-05-11T17:17:58.764Z,22.90
2019-05-11T17:20:35.973Z,21.23
2019-05-11T17:23:13.755Z,22.15
2019-05-11T17:25:50.765Z,21.37
2019-05-11T17:28:28.212Z,25.45
2019-05-11T17:31:07.747Z,22.75
2019-05-11T17:33:44.841Z,21.75
2019-05-11T17:36:21.823Z,23.85
2019-05-11T17:38:59.286Z,23.10
2019-05-11T17:41:38.618Z,19.05
2019-05-11T17:44:18.552Z,19.85
2019-05-11T17:46:57.880Z,23.27
2019-05-11T17:49:38.281Z,21.62
2019-05-11T17:52:15.307Z,23.05
2019-05-11T17:54:55.219Z,16.97
2019-05-11T17:57:32.632Z,16.90
2019-05-11T18:00:10.159Z,15.78
2019-05-11T18:02:49.083Z,19.32
2019-05-11T18:05:28.603Z,20.80
2019-05-11T18:08:08.570Z,17.82
2019-05-11T18:10:47.802Z,17.67
2019-05-11T18:13:24.528Z,18.20
2019-05-11T18:16:05.377Z,21.07
2019-05-11T18:18:43.900Z,17.15
2019-05-11T18:21:21.234Z,16.67
2019-05-11T18:23:58.847Z,20.30
2019-05-11T18:26:38.280Z,21.40
2019-05-11T18:29:18.074Z,19.62
2019-05-11T18:31:57.808Z,21.77
2019-05-11T18:34:34.636Z,16.42
2019-05-11T18:37:13.014Z,18.95
2019-05-11T18:39:52.799Z,20.25
2019-05-11T18:42:29.869Z,23.35
2019-05-11T18:45:08.237Z,24.15
2019-05-11T18:47:48.845Z,17.32
2019-05-11T18:50:31.310Z,24.37
2019-05-11T18:53:09.237Z,20.17
2019-05-11T18:55:48.660Z,24.80
2019-05-11T18:58:27.692Z,23.85
2019-05-11T19:01:06.170Z,20.30
2019-05-11T19:03:44.193Z,21.37
2019-05-11T19:06:22.976Z,24.02
2019-05-11T19:09:02.178Z,22.45
2019-05-11T19:11:42.829Z,22.32
2019-05-11T19:14:19.682Z,21.50
2019-05-11T19:16:56.858Z,22.15
2019-05-11T19:19:34.958Z,17.80
2019-05-11T19:22:13.509Z,27.60
2019-05-11T19:24:50.740Z,25.62
2019-05-11T19:27:28.824Z,22.60
2019-05-11T19:30:07.970Z,26.57
2019-05-11T19:32:45.218Z,31.60
2019-05-11T19:35:22.315Z,20.92
2019-05-11T19:38:02.044Z,22.20
2019-05-11T19:40:42.490Z,21.60
2019-05-11T19:43:19.813Z,23.32
2019-05-11T19:45:58.166Z,25.25
2019-05-11T19:48:35.555Z,28.52
2019-05-11T19:51:13.329Z,24.15
2019-05-11T19:53:52.450Z,35.45
2019-05-11T19:56:29.827Z,25.97
2019-05-11T19:59:08.532Z,27.58
2019-05-11T20:01:47.064Z,31.27
2019-05-11T20:04:24.618Z,22.10
2019-05-11T20:07:02.202Z,27.15
2019-05-11T20:09:39.497Z,27.77
2019-05-11T20:12:20.052Z,29.75
2019-05-11T20:14:58.638Z,28.07
2019-05-11T20:17:36.186Z,27.50
2019-05-11T20:20:13.445Z,29.25
2019-05-11T20:22:51.802Z,25.82
2019-05-11T20:25:30.875Z,31.20
2019-05-11T20:28:08.510Z,23.57
2019-05-11T20:30:48.260Z,27.50
2019-05-11T20:33:25.357Z,29.30
2019-05-11T20:36:02.193Z,26.65
2019-05-11T20:38:39.838Z,29.55
2019-05-11T20:41:17.075Z,27.93
2019-05-11T20:43:55.553Z,26.68
2019-05-11T20:46:32.888Z,29.20
2019-05-11T20:49:10.741Z,30.17
2019-05-11T20:51:48.566Z,31.45
2019-05-11T20:54:28.255Z,26.35
2019-05-11T20:57:08.898Z,26.12
2019-05-11T20:59:46.606Z,33.35
2019-05-11T21:02:23.646Z,32.03
2019-05-11T21:05:02.022Z,31.37
2019-05-11T21:07:41.156Z,30.48
2019-05-11T21:10:19.308Z,26.62
2019-05-11T21:12:57.741Z,27.67
2019-05-11T21:15:38.321Z,29.70
2019-05-11T21:18:15.355Z,29.00
2019-05-11T21:20:52.705Z,36.40
2019-05-11T21:23:30.019Z,35.05
2019-05-11T21:26:09.918Z,37.13
2019-05-11T21:28:48.662Z,31.95
2019-05-11T21:31:29.011Z,36.30
2019-05-11T21:34:08.073Z,30.97
2019-05-11T21:36:48.305Z,29.30
2019-05-11T21:39:24.467Z,32.80
2019-05-11T21:42:01.643Z,31.42
2019-05-11T21:44:39.726Z,32.60
2019-05-11T21:47:18.330Z,25.88
2019-05-11T21:49:57.772Z,31.68
2019-05-11T21:52:38.160Z,32.55
2019-05-11T21:55:15.597Z,30.92
2019-05-11T21:57:54.641Z,34.15
2019-05-11T22:00:34.299Z,31.07
2019-05-11T22:03:12.871Z,30.12
2019-05-11T22:05:50.225Z,28.32
2019-05-11T22:08:28.473Z,31.68
2019-05-11T22:11:08.216Z,32.95
2019-05-11T22:13:45.447Z,30.30
2019-05-11T22:16:22.792Z,32.28
2019-05-11T22:19:00.834Z,31.33
2019-05-11T22:21:37.690Z,27.87
2019-05-11T22:24:14.869Z,36.25
2019-05-11T22:26:52.933Z,30.10
2019-05-11T22:29:32.915Z,32.15
2019-05-11T22:32:11.068Z,31.55
2019-05-11T22:34:49.194Z,29.48
2019-05-11T22:37:27.736Z,29.37
2019-05-11T22:40:08.152Z,35.92
2019-05-11T22:42:45.686Z,33.00
2019-05-11T22:45:23.627Z,27.00
2019-05-11T22:48:02.185Z,29.60
2019-05-11T22:50:43.707Z,30.20
2019-05-11T22:53:20.588Z,33.25
2019-05-11T22:55:58.554Z,33.15
2019-05-11T22:58:36.312Z,29.65
2019-05-11T23:01:14.492Z,31.62
2019-05-11T23:03:52.323Z,37.50
2019-05-11T23:06:32.344Z,34.80
2019-05-11T23:09:10.052Z,36.10
2019-05-11T23:11:48.337Z,35.17
2019-05-11T23:14:25.304Z,34.10
2019-05-11T23:17:02.487Z,29.63
2019-05-11T23:19:40.579Z,29.75
2019-05-11T23:22:18.973Z,25.50
2019-05-11T23:24:58.652Z,34.75
2019-05-11T23:27:35.985Z,32.23
2019-05-11T23:30:13.607Z,35.68
2019-05-11T23:32:51.905Z,32.33
2019-05-11T23:35:30.370Z,31.50
2019-05-11T23:38:08.112Z,38.17
2019-05-11T23:40:48.100Z,33.30
2019-05-11T23:43:29.783Z,30.27
2019-05-11T23:46:03.996Z,31.60
2019-05-11T23:48:41.404Z,31.10
2019-05-11T23:51:19.029Z,35.08
2019-05-11T23:53:58.841Z,33.85
2019-05-11T23:56:38.641Z,35.85
2019-05-11T23:59:16.156Z,34.25
